TAF KMCB
AMD KMCB 080157Z 0802/0824 00000KT 3SM BR OVC003 FM080500 00000KT 1/4SM FG OVC003 FM081600 36005KT 6SM BR SCT003=
METAR KMCB
WC KMCB
WS KMCB
WV KMCB